Terminal Aerodrome Forecast
Issued by NWS

Home | Current Version | Previous Version | Text Only | Print | Product List | Glossary On
Versions: 1 2 3 4 5 6 7 8 9 10 11 12 13 14 15 16 17 18 19 20 21 22 23 24 25 26 27 28 29 30 31 32 33
000
FTPA31 PHFO 051100
TAFLIH
TAF
PHLI 051120Z 0512/0612 09006KT P6SM VCSH SCT020 BKN040
      TEMPO 0512/0516 5SM SHRA BKN020 OVC035
     FM052100 10009KT P6SM VCSH SCT025 BKN040=

USA.gov is the U.S. government's official web portal to all federal, state and local government web resources and services.